createdAt,value
2023-05-06T00:00:19.524Z,17.78
2023-05-06T00:02:48.523Z,17.77
2023-05-06T00:05:16.073Z,17.70
2023-05-06T00:07:43.334Z,17.80
2023-05-06T00:10:10.682Z,17.81
2023-05-06T00:12:38.087Z,17.75
2023-05-06T00:15:06.531Z,17.62
2023-05-06T00:17:33.877Z,17.58
2023-05-06T00:20:02.730Z,17.53
2023-05-06T00:22:30.037Z,17.56
2023-05-06T00:24:57.304Z,17.60
2023-05-06T00:27:24.831Z,17.69
2023-05-06T00:29:52.114Z,17.49
2023-05-06T00:32:19.436Z,17.36
2023-05-06T00:34:46.828Z,17.29
2023-05-06T00:37:15.499Z,17.32
2023-05-06T04:46:51.308Z,14.22
2023-05-06T04:49:19.167Z,13.77
2023-05-06T04:51:46.458Z,13.63
2023-05-06T04:54:13.752Z,13.88
2023-05-06T04:56:41.098Z,13.77
2023-05-06T04:59:08.462Z,13.96
2023-05-06T05:01:35.846Z,14.28
2023-05-06T05:04:04.806Z,14.53
2023-05-06T05:06:32.194Z,14.72
2023-05-06T05:08:59.832Z,14.84
2023-05-06T05:11:27.264Z,14.92
2023-05-06T05:13:56.845Z,15.00
2023-05-06T05:16:24.960Z,14.91
2023-05-06T05:18:55.311Z,14.24
2023-05-06T05:21:24.049Z,14.27
2023-05-06T05:23:51.312Z,14.01
2023-05-06T05:26:18.599Z,13.68
2023-05-06T05:28:45.870Z,13.77
2023-05-06T05:31:13.235Z,14.15
2023-05-06T05:33:40.524Z,14.49
2023-05-06T05:36:08.177Z,14.62
2023-05-06T05:38:36.892Z,14.87
2023-05-06T05:41:04.632Z,15.17
2023-05-06T05:43:35.040Z,15.28
2023-05-06T05:46:02.398Z,15.11
2023-05-06T05:48:29.862Z,15.01
2023-05-06T05:50:57.145Z,15.18
2023-05-06T05:53:24.467Z,15.27
2023-05-06T05:55:54.093Z,15.18
2023-05-06T05:58:21.521Z,15.73
2023-05-06T06:00:48.848Z,16.03
2023-05-06T06:03:17.885Z,16.48
2023-05-06T06:05:45.463Z,17.01
2023-05-06T06:08:13.176Z,17.38
2023-05-06T06:10:40.473Z,17.63
2023-05-06T06:13:09.215Z,17.90
2023-05-06T06:15:36.596Z,17.93
2023-05-06T06:18:04.224Z,17.91
2023-05-06T06:20:31.633Z,17.75
2023-05-06T06:22:58.980Z,17.65
2023-05-06T06:25:26.387Z,17.56
2023-05-06T06:27:54.768Z,17.68
2023-05-06T06:30:23.610Z,17.72
2023-05-06T06:32:52.421Z,18.02
2023-05-06T06:35:20.089Z,17.72
2023-05-06T06:37:47.560Z,17.34
2023-05-06T06:40:15.476Z,17.69
2023-05-06T06:42:42.756Z,18.25
2023-05-06T06:45:11.242Z,19.11
2023-05-06T06:47:40.302Z,19.95
2023-05-06T06:50:08.725Z,20.49
2023-05-06T06:52:36.082Z,19.83
2023-05-06T06:55:03.804Z,20.16
2023-05-06T06:57:31.088Z,20.80
2023-05-06T06:59:58.404Z,20.74
2023-05-06T07:02:25.785Z,20.79
2023-05-06T07:04:54.508Z,20.83
2023-05-06T07:07:21.811Z,22.04
2023-05-06T07:09:49.107Z,23.28
2023-05-06T07:12:16.495Z,23.60
2023-05-06T07:14:43.793Z,23.98
2023-05-06T07:17:11.168Z,25.04
2023-05-06T07:19:38.548Z,25.76
2023-05-06T07:22:07.299Z,25.33
2023-05-06T07:24:34.625Z,27.12
2023-05-06T07:27:02.198Z,27.71
2023-05-06T07:29:29.601Z,28.20
2023-05-06T07:31:56.913Z,28.81
2023-05-06T07:34:24.231Z,28.43
2023-05-06T07:36:51.572Z,28.78
2023-05-06T07:39:20.268Z,29.00
2023-05-06T07:41:47.590Z,28.83
2023-05-06T07:44:14.881Z,28.99
2023-05-06T07:46:42.301Z,29.11
2023-05-06T07:49:09.777Z,28.73
2023-05-06T07:51:37.100Z,28.44
2023-05-06T07:54:04.729Z,29.10
2023-05-06T07:56:33.428Z,29.39
2023-05-06T07:59:00.759Z,28.88
2023-05-06T08:01:28.357Z,28.79
2023-05-06T08:03:55.853Z,28.40
2023-05-06T08:06:23.288Z,28.12
2023-05-06T08:08:50.580Z,28.43
2023-05-06T08:11:19.369Z,28.41
2023-05-06T08:13:48.208Z,28.20
2023-05-06T08:16:15.847Z,27.43
2023-05-06T08:18:43.158Z,26.76
2023-05-06T08:21:10.519Z,26.10
2023-05-06T08:23:37.906Z,25.79
2023-05-06T08:26:05.172Z,25.38
2023-05-06T08:28:35.487Z,25.53
2023-05-06T08:31:04.183Z,25.57
2023-05-06T08:33:31.495Z,25.18
2023-05-06T08:35:59.138Z,25.21
2023-05-06T08:38:26.843Z,24.96
2023-05-06T08:40:54.635Z,25.17
2023-05-06T08:43:22.053Z,24.90
2023-05-06T08:45:49.775Z,25.04
2023-05-06T08:48:18.690Z,25.00
2023-05-06T08:50:48.848Z,24.79
2023-05-06T08:53:16.805Z,24.89
2023-05-06T08:55:45.321Z,24.84
2023-05-06T08:58:16.305Z,24.94
2023-05-06T09:00:44.290Z,25.00
2023-05-06T09:03:11.700Z,24.72
2023-05-06T09:05:40.489Z,24.08
2023-05-06T09:08:07.831Z,24.20
2023-05-06T09:10:43.098Z,24.55
2023-05-06T09:13:12.032Z,24.37
2023-05-06T09:15:40.113Z,24.59
2023-05-06T09:18:07.816Z,24.32
2023-05-06T09:20:35.385Z,24.25
2023-05-06T09:23:04.149Z,24.10
2023-05-06T09:25:31.764Z,24.02
2023-05-06T09:28:04.505Z,24.06
2023-05-06T09:30:31.808Z,24.41
2023-05-06T09:32:59.400Z,24.40
2023-05-06T09:35:27.573Z,24.54
2023-05-06T09:37:54.880Z,24.65
2023-05-06T09:40:24.761Z,24.73
2023-05-06T09:42:52.129Z,24.58
2023-05-06T09:45:19.414Z,24.64
2023-05-06T09:47:47.050Z,24.49
2023-05-06T09:50:14.375Z,24.49
2023-05-06T09:52:45.057Z,24.80
2023-05-06T09:55:12.847Z,25.09
2023-05-06T09:57:41.829Z,24.88
2023-05-06T10:00:10.411Z,25.06
2023-05-06T10:02:40.262Z,25.11
2023-05-06T10:05:09.966Z,24.96
2023-05-06T10:07:38.642Z,25.01
2023-05-06T10:10:08.518Z,24.96
2023-05-06T10:12:36.340Z,25.18
2023-05-06T10:15:06.197Z,25.12
2023-05-06T10:17:35.241Z,25.24
2023-05-06T10:20:04.474Z,25.11
2023-05-06T10:22:41.381Z,25.18
2023-05-06T10:25:16.631Z,25.34
2023-05-06T10:27:45.379Z,25.34
2023-05-06T10:30:15.842Z,25.13
2023-05-06T10:32:45.372Z,25.41
2023-05-06T10:35:35.803Z,25.63
2023-05-06T10:38:05.004Z,25.31
2023-05-06T10:40:32.562Z,25.33
2023-05-06T10:43:23.424Z,25.54
2023-05-06T10:46:10.759Z,25.48
2023-05-06T10:48:39.603Z,25.60
2023-05-06T10:51:28.026Z,25.78
2023-05-06T10:54:00.369Z,26.08
2023-05-06T10:56:27.848Z,26.06
2023-05-06T10:58:55.196Z,25.99
2023-05-06T11:01:26.886Z,26.24
2023-05-06T11:03:54.762Z,26.33
2023-05-06T11:06:36.115Z,26.44
2023-05-06T11:09:05.229Z,26.41
2023-05-06T11:11:57.697Z,26.34
2023-05-06T11:14:27.322Z,26.47
2023-05-06T11:16:57.801Z,26.63
2023-05-06T11:19:26.964Z,26.90
2023-05-06T11:21:55.162Z,26.69
2023-05-06T11:24:24.102Z,26.63
2023-05-06T11:26:52.143Z,26.62
2023-05-06T11:29:19.834Z,26.46
2023-05-06T11:31:47.498Z,26.51
2023-05-06T11:34:23.603Z,26.34
2023-05-06T11:36:57.545Z,26.33
2023-05-06T11:39:25.594Z,26.29
2023-05-06T11:41:53.200Z,26.41
2023-05-06T11:44:31.697Z,26.56
2023-05-06T11:47:00.704Z,26.71
2023-05-06T11:49:29.644Z,26.70
2023-05-06T11:51:57.214Z,26.41
2023-05-06T11:54:26.231Z,26.65
2023-05-06T11:56:55.068Z,26.59
2023-05-06T11:59:30.613Z,26.13
2023-05-06T12:01:59.790Z,26.33
2023-05-06T12:04:27.691Z,26.36
2023-05-06T12:06:56.671Z,26.49
2023-05-06T12:09:25.038Z,26.55
2023-05-06T12:11:52.815Z,26.56
2023-05-06T12:14:20.417Z,26.64
2023-05-06T12:16:47.863Z,26.86
2023-05-06T12:19:16.815Z,27.12
2023-05-06T12:21:44.696Z,26.85
2023-05-06T12:24:13.889Z,27.09
2023-05-06T12:26:48.611Z,27.07
2023-05-06T12:29:17.106Z,26.91
2023-05-06T12:31:45.510Z,26.79
2023-05-06T12:34:13.302Z,26.63
2023-05-06T12:36:42.233Z,26.43
2023-05-06T12:39:09.654Z,26.65
2023-05-06T12:41:40.461Z,26.87
2023-05-06T12:44:30.156Z,27.09
2023-05-06T12:46:57.496Z,26.98
2023-05-06T12:49:24.922Z,27.01
2023-05-06T12:52:08.496Z,27.33
2023-05-06T12:54:36.167Z,27.26
2023-05-06T12:57:05.283Z,27.16
2023-05-06T12:59:33.074Z,27.16
2023-05-06T13:02:00.431Z,27.27
2023-05-06T13:04:27.776Z,27.23
2023-05-06T13:06:55.206Z,27.18
2023-05-06T13:09:22.952Z,27.12
2023-05-06T13:11:50.550Z,27.30
2023-05-06T13:14:19.207Z,27.19
2023-05-06T13:16:46.682Z,27.13
2023-05-06T13:19:30.713Z,27.16
2023-05-06T13:21:59.982Z,27.02
2023-05-06T13:24:27.505Z,27.08
2023-05-06T13:26:54.853Z,26.96
2023-05-06T13:29:23.848Z,27.39
2023-05-06T13:31:51.502Z,27.35
2023-05-06T13:34:19.021Z,27.29
2023-05-06T13:36:46.364Z,27.15
2023-05-06T13:39:13.684Z,26.88
2023-05-06T13:41:40.945Z,26.86
2023-05-06T13:44:08.379Z,26.66
2023-05-06T13:46:37.045Z,26.84
2023-05-06T13:49:04.391Z,26.53
2023-05-06T13:51:32.501Z,26.54
2023-05-06T13:53:59.846Z,26.65
2023-05-06T13:56:27.391Z,26.63
2023-05-06T13:58:54.819Z,26.44
2023-05-06T14:01:23.057Z,26.06
2023-05-06T14:03:52.054Z,26.06
2023-05-06T14:06:19.794Z,25.98
2023-05-06T14:08:47.398Z,25.80
2023-05-06T14:11:14.720Z,25.65
2023-05-06T14:13:42.018Z,25.59
2023-05-06T14:16:09.378Z,25.63
2023-05-06T14:18:36.785Z,25.78
2023-05-06T14:21:05.494Z,26.03
2023-05-06T14:23:32.805Z,25.57
2023-05-06T14:26:00.231Z,25.04
2023-05-06T14:28:27.581Z,24.72
2023-05-06T14:30:54.865Z,24.84
2023-05-06T14:33:22.238Z,24.69
2023-05-06T14:35:51.245Z,24.50
2023-05-06T14:38:20.037Z,24.79
2023-05-06T14:40:47.387Z,24.72
2023-05-06T14:43:14.655Z,25.05
2023-05-06T14:45:41.983Z,25.02
2023-05-06T14:48:09.317Z,24.81
2023-05-06T14:50:36.664Z,24.73
2023-05-06T14:53:04.224Z,24.65
2023-05-06T14:55:32.962Z,24.63
2023-05-06T14:58:00.241Z,24.40
2023-05-06T15:00:27.752Z,24.22
2023-05-06T15:02:55.127Z,24.15
2023-05-06T15:05:22.546Z,24.13
2023-05-06T15:07:49.873Z,24.59
2023-05-06T15:10:17.327Z,25.20
2023-05-06T15:12:46.004Z,25.39
2023-05-06T15:15:13.660Z,25.56
2023-05-06T15:17:41.087Z,25.29
2023-05-06T15:20:09.368Z,24.77
2023-05-06T15:22:39.189Z,25.01
2023-05-06T15:25:09.358Z,25.14
2023-05-06T15:27:38.112Z,25.62
2023-05-06T15:30:08.353Z,25.73
2023-05-06T15:32:35.713Z,25.47
2023-05-06T15:35:03.124Z,25.13
2023-05-06T15:37:32.096Z,25.08
2023-05-06T15:39:59.438Z,24.85
2023-05-06T15:42:26.713Z,24.68
2023-05-06T15:44:54.209Z,24.42
2023-05-06T15:47:22.877Z,24.11
2023-05-06T15:49:54.767Z,24.10
2023-05-06T15:52:22.449Z,24.05
2023-05-06T15:54:50.312Z,23.98
2023-05-06T15:57:17.858Z,23.78
2023-05-06T15:59:45.187Z,23.47
2023-05-06T16:02:26.918Z,23.49
2023-05-06T16:04:56.387Z,23.76
2023-05-06T16:07:23.867Z,24.13
2023-05-06T16:09:51.276Z,24.28
2023-05-06T16:12:18.594Z,24.04
2023-05-06T16:14:45.885Z,24.20
2023-05-06T16:17:13.191Z,23.97
2023-05-06T16:19:40.461Z,23.39
2023-05-06T16:22:09.100Z,23.62
2023-05-06T16:24:36.412Z,23.54
2023-05-06T16:27:03.760Z,23.51
2023-05-06T16:29:31.183Z,23.66
2023-05-06T16:31:58.630Z,23.82
2023-05-06T16:34:26.049Z,23.92
2023-05-06T16:36:53.409Z,24.08
2023-05-06T16:39:22.095Z,23.62
2023-05-06T16:41:49.425Z,23.46
2023-05-06T16:44:16.751Z,23.29
2023-05-06T16:46:44.148Z,23.07
2023-05-06T16:49:11.584Z,22.84
2023-05-06T16:51:38.887Z,22.87
2023-05-06T16:54:06.226Z,22.86
2023-05-06T16:56:48.218Z,22.81
2023-05-06T16:59:20.117Z,22.75
2023-05-06T17:01:49.150Z,22.54
2023-05-06T17:04:16.769Z,22.40
2023-05-06T17:06:44.101Z,22.39
2023-05-06T17:09:11.384Z,22.20
2023-05-06T17:11:40.028Z,22.17
2023-05-06T17:14:07.365Z,22.22
2023-05-06T17:16:34.755Z,22.19
2023-05-06T17:19:02.322Z,22.26
2023-05-06T17:21:29.663Z,21.97
2023-05-06T17:23:57.796Z,21.97
2023-05-06T17:26:25.189Z,21.84
2023-05-06T17:28:54.261Z,21.96
2023-05-06T17:31:21.712Z,21.96
2023-05-06T17:33:49.219Z,21.83
2023-05-06T17:36:18.574Z,21.99
2023-05-06T17:38:45.913Z,22.13
2023-05-06T17:41:13.216Z,21.81
2023-05-06T17:43:40.580Z,22.08
2023-05-06T17:46:09.391Z,22.37
2023-05-06T17:48:36.827Z,22.56
2023-05-06T17:51:04.197Z,22.19
2023-05-06T17:53:31.531Z,21.83
2023-05-06T17:55:59.093Z,21.73
2023-05-06T17:58:26.411Z,21.74
2023-05-06T18:00:53.746Z,21.87
2023-05-06T18:03:22.514Z,21.66
2023-05-06T18:05:49.886Z,21.51
2023-05-06T18:08:17.411Z,21.68
2023-05-06T18:10:44.788Z,21.63
2023-05-06T18:13:12.293Z,21.37
2023-05-06T18:15:39.676Z,21.25
2023-05-06T18:18:07.022Z,21.19
2023-05-06T18:20:35.708Z,21.04
2023-05-06T18:23:03.330Z,21.21
2023-05-06T18:25:30.635Z,21.37
2023-05-06T18:27:57.917Z,21.17
2023-05-06T18:30:25.261Z,20.88
2023-05-06T18:32:54.553Z,20.62
2023-05-06T18:35:23.362Z,20.46
2023-05-06T18:37:52.060Z,20.30
2023-05-06T18:40:19.451Z,20.23
2023-05-06T18:42:47.094Z,20.37
2023-05-06T18:45:14.450Z,20.28
2023-05-06T18:47:41.773Z,19.98
2023-05-06T18:50:09.572Z,19.93
2023-05-06T18:52:36.824Z,19.95
2023-05-06T18:55:06.251Z,20.20
2023-05-06T18:57:33.550Z,20.01
2023-05-06T19:00:00.838Z,20.15
2023-05-06T19:02:28.210Z,20.16
2023-05-06T19:04:55.644Z,19.93
2023-05-06T19:07:22.997Z,19.96
2023-05-06T19:09:50.348Z,20.15
2023-05-06T19:12:19.032Z,20.07
2023-05-06T19:14:46.302Z,20.02
2023-05-06T19:17:13.682Z,20.17
2023-05-06T19:19:41.073Z,20.13
2023-05-06T19:22:08.392Z,20.14
2023-05-06T19:24:35.738Z,20.01
2023-05-06T19:27:03.197Z,20.13
2023-05-06T19:29:31.890Z,20.26
2023-05-06T19:31:59.936Z,20.04
2023-05-06T19:34:27.215Z,20.16
2023-05-06T19:36:54.721Z,19.94
2023-05-06T19:39:21.978Z,20.05
2023-05-06T19:41:49.437Z,20.06
2023-05-06T19:44:16.824Z,20.28
2023-05-06T19:46:45.534Z,20.49
2023-05-06T19:49:12.820Z,20.40
2023-05-06T19:51:40.148Z,19.97
2023-05-06T19:54:07.411Z,20.02
2023-05-06T19:56:34.704Z,19.90
2023-05-06T19:59:01.994Z,19.86
2023-05-06T20:01:29.324Z,19.80
2023-05-06T20:03:58.340Z,19.94
2023-05-06T20:06:25.858Z,19.57
2023-05-06T20:08:53.121Z,19.47
2023-05-06T20:11:20.423Z,19.46
2023-05-06T20:13:47.679Z,19.41
2023-05-06T20:16:15.044Z,19.28
2023-05-06T20:18:42.361Z,19.26
2023-05-06T20:21:11.071Z,19.23
2023-05-06T20:23:38.335Z,19.23
2023-05-06T20:26:05.626Z,19.30
2023-05-06T20:28:32.998Z,19.37
2023-05-06T20:31:00.378Z,19.40
2023-05-06T20:33:27.692Z,19.22
2023-05-06T20:35:55.030Z,19.31
2023-05-06T20:38:23.970Z,19.44
2023-05-06T20:40:51.254Z,19.49
2023-05-06T20:43:18.529Z,19.48
2023-05-06T20:45:45.882Z,19.16
2023-05-06T20:48:14.995Z,18.89
2023-05-06T20:50:42.740Z,18.83
2023-05-06T20:53:10.099Z,18.85
2023-05-06T20:55:38.850Z,18.57
2023-05-06T20:58:06.183Z,18.51
2023-05-06T21:00:33.458Z,18.27
2023-05-06T21:03:01.124Z,18.28
2023-05-06T21:05:28.558Z,18.23
2023-05-06T21:07:55.864Z,18.21
2023-05-06T21:10:23.165Z,18.11
2023-05-06T21:12:51.909Z,18.11
2023-05-06T21:15:19.426Z,18.25
2023-05-06T21:17:46.850Z,18.18
2023-05-06T21:20:14.251Z,18.16
2023-05-06T21:22:41.673Z,18.31
2023-05-06T21:25:09.700Z,18.25
2023-05-06T21:27:37.132Z,18.19
2023-05-06T21:30:07.360Z,18.27
2023-05-06T21:32:34.694Z,18.33
2023-05-06T21:35:02.361Z,18.27
2023-05-06T21:37:29.675Z,18.22
2023-05-06T21:39:56.976Z,18.40
2023-05-06T21:42:24.260Z,18.48
2023-05-06T21:44:51.547Z,18.48
2023-05-06T21:47:20.238Z,18.60
2023-05-06T21:49:47.673Z,18.44
2023-05-06T21:52:15.014Z,18.33
2023-05-06T21:54:45.346Z,18.41
2023-05-06T21:57:12.681Z,18.33
2023-05-06T21:59:40.056Z,18.34
2023-05-06T22:02:07.632Z,18.23
2023-05-06T22:04:36.517Z,18.24
2023-05-06T22:07:04.026Z,18.23
2023-05-06T22:09:31.371Z,18.22
2023-05-06T22:11:58.724Z,17.93
2023-05-06T22:14:30.230Z,18.09
2023-05-06T22:17:05.823Z,18.00
2023-05-06T22:19:33.370Z,18.00
2023-05-06T22:22:02.698Z,18.18
2023-05-06T22:24:29.988Z,18.04
2023-05-06T22:26:57.572Z,18.20
2023-05-06T22:29:24.948Z,17.92
2023-05-06T22:31:52.255Z,18.08
2023-05-06T22:34:20.517Z,18.01
2023-05-06T22:36:47.782Z,18.06
2023-05-06T22:39:16.610Z,18.25
2023-05-06T22:41:43.924Z,18.31
2023-05-06T22:44:11.183Z,18.29
2023-05-06T22:46:38.471Z,18.32
2023-05-06T22:49:05.774Z,18.33
2023-05-06T22:51:33.211Z,18.31
2023-05-06T22:54:00.700Z,18.34
2023-05-06T22:56:29.402Z,18.42
2023-05-06T22:58:56.715Z,18.32
2023-05-06T23:01:24.170Z,18.24
2023-05-06T23:03:51.556Z,18.06
2023-05-06T23:06:19.118Z,18.05
2023-05-06T23:08:46.473Z,17.86
2023-05-06T23:11:13.742Z,17.54
2023-05-06T23:13:42.372Z,17.67
2023-05-06T23:16:09.673Z,17.80
2023-05-06T23:18:37.017Z,17.95
2023-05-06T23:21:04.670Z,17.72
2023-05-06T23:23:32.239Z,17.58
2023-05-06T23:25:59.722Z,17.21
2023-05-06T23:28:27.892Z,16.96
2023-05-06T23:30:56.560Z,16.81
2023-05-06T23:33:24.062Z,17.02
2023-05-06T23:35:51.392Z,16.90
2023-05-06T23:38:18.718Z,17.17
2023-05-06T23:40:46.069Z,17.43
2023-05-06T23:43:13.393Z,17.25
2023-05-06T23:45:40.718Z,17.20
2023-05-06T23:48:09.496Z,17.07
2023-05-06T23:50:36.820Z,16.93
2023-05-06T23:53:04.085Z,16.80
2023-05-06T23:55:31.647Z,16.90
2023-05-06T23:57:58.942Z,16.95
